createdAt,value
2022-11-05T00:00:57.179Z,97695.84
2022-11-05T00:05:17.896Z,97695.16
2022-11-05T00:09:46.168Z,97699.97
2022-11-05T00:14:07.030Z,97703.59
2022-11-05T00:18:09.058Z,97697.44
2022-11-05T00:22:29.876Z,97698.38
2022-11-05T00:26:31.974Z,97717.59
2022-11-05T00:30:33.980Z,97709.84
2022-11-05T00:34:35.989Z,97709.19
2022-11-05T00:38:38.149Z,97714.66
2022-11-05T00:43:02.551Z,97714.63
2022-11-05T00:47:23.124Z,97727.81
2022-11-05T00:51:25.101Z,97735.06
2022-11-05T00:55:35.069Z,97731.00
2022-11-05T00:59:37.060Z,97741.72
2022-11-05T01:03:40.028Z,97746.34
2022-11-05T01:07:42.123Z,97750.84
2022-11-05T01:11:45.996Z,97749.84
2022-11-05T01:15:48.458Z,97760.22
2022-11-05T01:19:51.080Z,97750.47
2022-11-05T01:23:53.691Z,97752.91
2022-11-05T01:27:55.713Z,97753.63
2022-11-05T01:31:57.772Z,97756.22
2022-11-05T01:35:59.829Z,97758.91
2022-11-05T01:40:02.526Z,97759.09
2022-11-05T01:44:04.699Z,97766.16
2022-11-05T01:48:15.246Z,97774.13
2022-11-05T01:52:18.446Z,97776.84
2022-11-05T01:56:26.809Z,97777.84
2022-11-05T02:00:28.955Z,97777.03
2022-11-05T02:04:35.579Z,97789.38
2022-11-05T02:09:02.868Z,97785.97
2022-11-05T02:13:04.888Z,97793.03
2022-11-05T02:17:42.639Z,97790.47
2022-11-05T02:22:02.786Z,97787.84
2022-11-05T02:26:29.383Z,97790.28
2022-11-05T02:30:37.484Z,97792.81
2022-11-05T02:34:53.276Z,97792.69
2022-11-05T02:39:20.346Z,97797.34
2022-11-05T02:43:36.224Z,97799.97
2022-11-05T02:47:45.446Z,97807.69
2022-11-05T02:51:57.255Z,97811.88
2022-11-05T02:56:04.128Z,97812.69
2022-11-05T03:00:28.761Z,97806.78
2022-11-05T03:04:32.130Z,97814.50
2022-11-05T03:08:52.929Z,97816.88
2022-11-05T03:13:04.071Z,97816.94
2022-11-05T03:17:31.206Z,97818.81
2022-11-05T03:21:53.111Z,97823.31
2022-11-05T03:26:12.179Z,97828.94
2022-11-05T03:30:18.437Z,97839.38
2022-11-05T03:34:31.677Z,97840.25
2022-11-05T03:38:38.321Z,97844.69
2022-11-05T03:42:46.646Z,97854.28
2022-11-05T03:46:49.787Z,97851.50
2022-11-05T03:51:02.519Z,97857.59
2022-11-05T03:55:05.903Z,97856.13
2022-11-05T03:59:10.058Z,97863.50
2022-11-05T04:03:12.437Z,97869.84
2022-11-05T04:07:33.288Z,97860.44
2022-11-05T04:11:54.510Z,97859.72
2022-11-05T04:16:16.364Z,97868.50
2022-11-05T04:20:37.062Z,97877.38
2022-11-05T04:24:39.093Z,97878.38
2022-11-05T04:29:02.531Z,97886.38
2022-11-05T04:33:13.444Z,97891.66
2022-11-05T04:37:15.882Z,97905.69
2022-11-05T04:41:18.150Z,97904.84
2022-11-05T04:45:20.203Z,97915.28
2022-11-05T04:49:22.239Z,97918.59
2022-11-05T04:53:24.249Z,97920.31
2022-11-05T04:57:26.261Z,97919.44
2022-11-05T05:01:28.359Z,97916.03
2022-11-05T05:05:30.601Z,97922.09
2022-11-05T05:09:32.600Z,97923.00
2022-11-05T05:13:35.064Z,97929.25
2022-11-05T05:17:37.104Z,97936.38
2022-11-05T05:21:39.301Z,97945.94
2022-11-05T05:25:41.380Z,97945.09
2022-11-05T05:29:43.452Z,97943.19
2022-11-05T05:33:45.448Z,97946.78
2022-11-05T05:37:47.495Z,97957.13
2022-11-05T05:41:49.581Z,97961.47
2022-11-05T05:45:52.007Z,97955.25
2022-11-05T05:49:54.013Z,97962.28
2022-11-05T05:53:56.240Z,97961.53
2022-11-05T05:57:58.241Z,97971.13
2022-11-05T06:02:00.776Z,97971.13
2022-11-05T06:06:08.285Z,97985.22
2022-11-05T06:10:10.314Z,97986.13
2022-11-05T06:14:13.145Z,97994.97
2022-11-05T06:18:15.215Z,98009.94
2022-11-05T06:22:17.233Z,98002.38
2022-11-05T06:26:20.058Z,98002.63
2022-11-05T06:30:23.514Z,98006.28
2022-11-05T06:34:25.566Z,98009.81
2022-11-05T06:38:29.195Z,98023.69
2022-11-05T06:42:31.191Z,98029.75
2022-11-05T06:46:33.200Z,98039.34
2022-11-05T06:50:35.197Z,98045.44
2022-11-05T06:54:37.181Z,98042.75
2022-11-05T06:58:39.217Z,98060.03
2022-11-05T07:02:41.199Z,98057.25
2022-11-05T07:06:43.172Z,98063.34
2022-11-05T07:10:45.153Z,98073.78
2022-11-05T07:14:47.227Z,98083.78
2022-11-05T07:18:49.262Z,98087.50
2022-11-05T07:22:51.386Z,98093.75
2022-11-05T07:26:53.380Z,98103.38
2022-11-05T07:30:55.417Z,98107.88
2022-11-05T07:34:57.459Z,98122.03
2022-11-05T07:39:00.697Z,98118.63
2022-11-05T07:43:02.951Z,98118.53
2022-11-05T07:47:04.939Z,98121.88
2022-11-05T07:51:06.939Z,98116.44
2022-11-05T07:55:10.157Z,98123.47
2022-11-05T07:59:12.191Z,98127.13
2022-11-05T08:03:18.573Z,98129.75
2022-11-05T08:07:21.083Z,98141.69
2022-11-05T08:11:23.117Z,98132.81
2022-11-05T08:15:25.532Z,98137.19
2022-11-05T08:19:27.573Z,98130.03
2022-11-05T08:23:30.999Z,98134.25
2022-11-05T08:27:33.032Z,98140.22
2022-11-05T08:31:37.023Z,98140.09
2022-11-05T08:35:39.765Z,98146.75
2022-11-05T08:39:41.782Z,98147.34
2022-11-05T08:43:43.806Z,98144.69
2022-11-05T08:47:46.244Z,98152.78
2022-11-05T08:51:48.381Z,98153.84
2022-11-05T08:55:51.472Z,98156.59
2022-11-05T08:59:53.473Z,98163.63
2022-11-05T09:03:55.515Z,98168.69
2022-11-05T09:08:01.434Z,98167.88
2022-11-05T09:12:12.259Z,98164.03
2022-11-05T09:16:21.802Z,98173.19
2022-11-05T09:20:23.968Z,98166.81
2022-11-05T09:24:26.083Z,98176.00
2022-11-05T09:28:28.350Z,98176.56
2022-11-05T09:32:31.420Z,98177.34
2022-11-05T09:36:33.411Z,98168.88
2022-11-05T09:40:58.091Z,98190.50
2022-11-05T09:45:08.902Z,98187.94
2022-11-05T09:49:42.821Z,98194.16
2022-11-05T09:53:46.092Z,98197.81
2022-11-05T09:57:54.695Z,98208.38
2022-11-05T10:02:09.642Z,98214.91
2022-11-05T10:06:20.393Z,98212.41
2022-11-05T10:10:40.506Z,98214.00
2022-11-05T10:14:48.626Z,98220.25
2022-11-05T10:19:13.638Z,98227.75
2022-11-05T10:23:19.221Z,98220.69
2022-11-05T10:27:35.358Z,98218.47
2022-11-05T10:31:37.853Z,98223.88
2022-11-05T10:36:06.175Z,98228.91
2022-11-05T10:40:25.007Z,98235.88
2022-11-05T10:44:35.754Z,98231.84
2022-11-05T10:49:26.439Z,98236.13
2022-11-05T10:53:34.757Z,98232.91
2022-11-05T10:57:39.523Z,98230.81
2022-11-05T11:01:41.949Z,98233.72
2022-11-05T11:05:44.239Z,98236.56
2022-11-05T11:09:49.537Z,98243.53
2022-11-05T11:13:57.590Z,98234.94
2022-11-05T11:18:23.948Z,98233.41
2022-11-05T11:22:26.031Z,98241.59
2022-11-05T11:26:42.105Z,98231.78
2022-11-05T11:30:50.472Z,98224.81
2022-11-05T11:34:54.227Z,98225.03
2022-11-05T11:39:04.285Z,98224.25
2022-11-05T11:43:28.099Z,98216.59
2022-11-05T11:47:30.217Z,98217.13
2022-11-05T11:51:40.305Z,98219.78
2022-11-05T11:55:58.557Z,98215.88
2022-11-05T12:00:09.515Z,98218.09
2022-11-05T12:04:30.740Z,98218.44
2022-11-05T12:08:45.565Z,98217.53
2022-11-05T12:13:18.577Z,98212.47
2022-11-05T12:17:23.507Z,98214.88
2022-11-05T12:21:52.081Z,98208.81
2022-11-05T12:26:13.353Z,98209.41
2022-11-05T12:30:21.177Z,98200.09
2022-11-05T12:34:54.107Z,98201.13
2022-11-05T12:39:19.173Z,98204.16
2022-11-05T12:43:40.886Z,98205.84
2022-11-05T12:48:29.210Z,98203.16
2022-11-05T12:53:02.245Z,98204.03
2022-11-05T12:57:05.631Z,98211.91
2022-11-05T13:01:21.975Z,98212.81
2022-11-05T13:05:30.206Z,98217.81
2022-11-05T13:09:55.699Z,98226.69
2022-11-05T13:14:03.828Z,98219.88
2022-11-05T13:18:13.389Z,98211.69
2022-11-05T13:22:33.208Z,98210.34
2022-11-05T13:26:52.771Z,98214.53
2022-11-05T13:30:57.807Z,98214.63
2022-11-05T13:35:02.753Z,98216.41
2022-11-05T13:39:29.821Z,98219.88
2022-11-05T13:44:02.936Z,98212.53
2022-11-05T13:48:31.438Z,98201.13
2022-11-05T13:52:46.127Z,98208.63
2022-11-05T13:57:10.929Z,98206.50
2022-11-05T14:01:29.699Z,98214.66
2022-11-05T14:05:39.779Z,98217.28
2022-11-05T14:09:43.490Z,98213.53
2022-11-05T14:13:49.628Z,98216.63
2022-11-05T14:18:02.035Z,98211.75
2022-11-05T14:22:31.928Z,98206.63
2022-11-05T14:26:34.024Z,98198.66
2022-11-05T14:30:44.176Z,98206.38
2022-11-05T14:34:48.294Z,98215.06
2022-11-05T14:39:00.036Z,98211.50
2022-11-05T14:43:14.341Z,98206.25
2022-11-05T14:47:22.326Z,98211.28
2022-11-05T14:51:39.948Z,98221.88
2022-11-05T14:55:43.284Z,98223.13
2022-11-05T14:59:48.220Z,98213.81
2022-11-05T15:04:25.023Z,98218.09
2022-11-05T15:08:48.980Z,98230.78
2022-11-05T15:12:56.422Z,98222.31
2022-11-05T15:17:30.254Z,98215.63
2022-11-05T15:21:35.550Z,98224.03
2022-11-05T15:25:53.171Z,98228.81
2022-11-05T15:29:55.755Z,98228.03
2022-11-05T15:34:17.654Z,98229.94
2022-11-05T15:38:28.129Z,98222.28
2022-11-05T15:42:30.182Z,98222.94
2022-11-05T15:46:32.168Z,98220.13
2022-11-05T15:50:34.250Z,98223.47
2022-11-05T15:54:36.535Z,98214.41
2022-11-05T15:58:47.190Z,98207.84
2022-11-05T16:02:59.024Z,98216.06
2022-11-05T16:07:08.981Z,98210.28
2022-11-05T16:11:21.251Z,98210.50
2022-11-05T16:15:25.771Z,98219.44
2022-11-05T16:19:41.113Z,98219.63
2022-11-05T16:23:44.476Z,98230.22
2022-11-05T16:27:46.500Z,98228.78
2022-11-05T16:31:50.712Z,98222.03
2022-11-05T16:35:53.136Z,98238.63
2022-11-05T16:39:55.526Z,98251.81
2022-11-05T16:43:59.988Z,98249.25
2022-11-05T16:48:01.979Z,98261.66
2022-11-05T16:52:08.627Z,98262.56
2022-11-05T16:56:15.643Z,98271.41
2022-11-05T17:00:20.255Z,98271.69
2022-11-05T17:04:22.247Z,98278.78
2022-11-05T17:08:24.396Z,98277.22
2022-11-05T17:12:26.399Z,98282.56
2022-11-05T17:16:29.287Z,98283.69
2022-11-05T17:20:59.744Z,98278.13
2022-11-05T17:25:01.726Z,98284.66
2022-11-05T17:29:03.763Z,98284.03
2022-11-05T17:33:05.812Z,98272.06
2022-11-05T17:37:07.825Z,98279.25
2022-11-05T17:41:21.912Z,98287.25
2022-11-05T17:45:23.906Z,98288.22
2022-11-05T17:49:25.936Z,98279.56
2022-11-05T17:53:27.944Z,98277.00
2022-11-05T17:57:29.910Z,98285.81
2022-11-05T18:01:34.631Z,98277.25
2022-11-05T18:05:37.870Z,98278.25
2022-11-05T18:09:40.286Z,98287.88
2022-11-05T18:13:42.352Z,98282.03
2022-11-05T18:17:46.148Z,98288.22
2022-11-05T18:21:48.143Z,98296.75
2022-11-05T18:25:50.158Z,98290.63
2022-11-05T18:29:52.236Z,98309.53
2022-11-05T18:33:56.732Z,98297.28
2022-11-05T18:37:59.066Z,98304.31
2022-11-05T18:42:01.102Z,98300.84
2022-11-05T18:46:03.219Z,98309.44
2022-11-05T18:50:06.589Z,98307.72
2022-11-05T18:54:08.865Z,98312.94
2022-11-05T18:58:11.076Z,98304.84
2022-11-05T19:02:14.523Z,98303.78
2022-11-05T19:06:25.985Z,98295.81
2022-11-05T19:10:28.318Z,98294.81
2022-11-05T19:14:30.444Z,98289.50
2022-11-05T19:18:32.439Z,98294.72
2022-11-05T19:22:34.473Z,98296.34
2022-11-05T19:26:36.482Z,98297.81
2022-11-05T19:30:38.798Z,98293.44
2022-11-05T19:34:40.795Z,98296.03
2022-11-05T19:38:43.314Z,98298.69
2022-11-05T19:42:45.786Z,98303.91
2022-11-05T19:46:47.789Z,98299.44
2022-11-05T19:50:49.911Z,98305.59
2022-11-05T19:54:51.886Z,98308.00
2022-11-05T19:58:54.370Z,98299.38
2022-11-05T20:02:56.546Z,98304.59
2022-11-05T20:06:58.710Z,98295.94
2022-11-05T20:11:00.939Z,98301.16
2022-11-05T20:15:03.931Z,98298.59
2022-11-05T20:19:08.776Z,98297.75
2022-11-05T20:23:11.230Z,98291.06
2022-11-05T20:27:13.237Z,98295.53
2022-11-05T20:31:17.892Z,98297.31
2022-11-05T20:35:19.892Z,98293.88
2022-11-05T20:39:21.959Z,98298.31
2022-11-05T20:43:30.038Z,98297.59
2022-11-05T20:47:33.652Z,98310.81
2022-11-05T20:51:35.812Z,98307.47
2022-11-05T20:55:42.640Z,98296.41
2022-11-05T20:59:44.734Z,98309.53
2022-11-05T21:03:47.762Z,98313.03
2022-11-05T21:07:49.814Z,98312.16
2022-11-05T21:12:10.123Z,98313.03
2022-11-05T21:16:17.872Z,98311.16
2022-11-05T21:20:21.342Z,98306.72
2022-11-05T21:24:23.595Z,98305.78
2022-11-05T21:28:25.601Z,98299.56
2022-11-05T21:32:27.627Z,98296.84
2022-11-05T21:36:29.784Z,98299.41
2022-11-05T21:40:32.661Z,98297.66
2022-11-05T21:44:34.644Z,98313.22
2022-11-05T21:48:36.670Z,98312.44
2022-11-05T21:52:57.265Z,98308.19
2022-11-05T21:57:17.852Z,98309.19
2022-11-05T22:01:19.979Z,98310.91
2022-11-05T22:05:22.126Z,98311.00
2022-11-05T22:09:24.793Z,98320.59
2022-11-05T22:13:26.828Z,98314.59
2022-11-05T22:17:29.032Z,98321.59
2022-11-05T22:21:31.139Z,98311.19
2022-11-05T22:25:33.172Z,98306.16
2022-11-05T22:29:36.184Z,98308.69
2022-11-05T22:33:38.196Z,98306.94
2022-11-05T22:37:40.231Z,98302.69
2022-11-05T22:41:42.912Z,98313.22
2022-11-05T22:45:45.491Z,98308.13
2022-11-05T22:49:49.246Z,98316.84
2022-11-05T22:53:51.261Z,98318.59
2022-11-05T22:57:53.238Z,98309.97
2022-11-05T23:01:55.437Z,98311.75
2022-11-05T23:05:59.309Z,98302.31
2022-11-05T23:10:20.070Z,98298.91
2022-11-05T23:14:22.087Z,98296.34
2022-11-05T23:18:42.933Z,98300.66
2022-11-05T23:23:03.460Z,98292.09
2022-11-05T23:27:05.433Z,98286.94
2022-11-05T23:31:27.325Z,98282.56
2022-11-05T23:36:01.800Z,98303.47
2022-11-05T23:40:07.036Z,98293.06
2022-11-05T23:44:27.782Z,98288.78
2022-11-05T23:48:35.794Z,98291.44
2022-11-05T23:52:37.851Z,98278.50
2022-11-05T23:56:39.930Z,98264.81
